sensor_id;sensor_type;location;lat;lon;timestamp;P1;durP1;ratioP1;P2;durP2;ratioP2
67378;SDS011;54262;44.642;-0.974;2023-11-19T00:00:36;12.30;;;11.50;;
67378;SDS011;54262;44.642;-0.974;2023-11-19T00:03:02;12.27;;;11.45;;
67378;SDS011;54262;44.642;-0.974;2023-11-19T00:05:28;11.60;;;10.73;;
67378;SDS011;54262;44.642;-0.974;2023-11-19T00:07:54;11.95;;;11.02;;
67378;SDS011;54262;44.642;-0.974;2023-11-19T00:10:19;11.43;;;10.70;;
67378;SDS011;54262;44.642;-0.974;2023-11-19T00:12:48;10.93;;;10.23;;
67378;SDS011;54262;44.642;-0.974;2023-11-19T00:15:17;10.43;;;9.82;;
67378;SDS011;54262;44.642;-0.974;2023-11-19T00:17:47;11.20;;;10.38;;
67378;SDS011;54262;44.642;-0.974;2023-11-19T00:20:15;10.98;;;10.05;;
67378;SDS011;54262;44.642;-0.974;2023-11-19T00:22:44;11.25;;;10.65;;
67378;SDS011;54262;44.642;-0.974;2023-11-19T00:25:15;10.20;;;9.38;;
67378;SDS011;54262;44.642;-0.974;2023-11-19T00:27:42;10.15;;;9.55;;
67378;SDS011;54262;44.642;-0.974;2023-11-19T00:30:09;10.48;;;9.63;;
67378;SDS011;54262;44.642;-0.974;2023-11-19T00:32:35;10.25;;;9.55;;
67378;SDS011;54262;44.642;-0.974;2023-11-19T00:35:03;10.60;;;9.77;;
67378;SDS011;54262;44.642;-0.974;2023-11-19T00:37:29;9.77;;;9.07;;
67378;SDS011;54262;44.642;-0.974;2023-11-19T00:39:55;9.52;;;8.98;;
67378;SDS011;54262;44.642;-0.974;2023-11-19T00:42:23;9.93;;;8.98;;
67378;SDS011;54262;44.642;-0.974;2023-11-19T00:44:50;9.43;;;8.93;;
67378;SDS011;54262;44.642;-0.974;2023-11-19T00:47:15;8.95;;;8.13;;
67378;SDS011;54262;44.642;-0.974;2023-11-19T00:49:41;8.73;;;7.97;;
67378;SDS011;54262;44.642;-0.974;2023-11-19T00:52:07;8.65;;;8.02;;
67378;SDS011;54262;44.642;-0.974;2023-11-19T00:54:33;9.13;;;8.60;;
67378;SDS011;54262;44.642;-0.974;2023-11-19T00:56:59;8.10;;;7.53;;
67378;SDS011;54262;44.642;-0.974;2023-11-19T00:59:26;8.27;;;7.68;;
67378;SDS011;54262;44.642;-0.974;2023-11-19T01:01:53;8.32;;;7.60;;
67378;SDS011;54262;44.642;-0.974;2023-11-19T01:04:19;8.35;;;7.82;;
67378;SDS011;54262;44.642;-0.974;2023-11-19T01:06:45;8.73;;;8.07;;
67378;SDS011;54262;44.642;-0.974;2023-11-19T01:09:10;8.10;;;7.70;;
67378;SDS011;54262;44.642;-0.974;2023-11-19T01:11:36;8.70;;;8.10;;
67378;SDS011;54262;44.642;-0.974;2023-11-19T01:14:02;7.18;;;6.75;;
67378;SDS011;54262;44.642;-0.974;2023-11-19T01:16:27;7.18;;;6.70;;
67378;SDS011;54262;44.642;-0.974;2023-11-19T01:18:53;10.73;;;6.90;;
67378;SDS011;54262;44.642;-0.974;2023-11-19T01:21:21;7.35;;;6.85;;
67378;SDS011;54262;44.642;-0.974;2023-11-19T01:23:49;8.30;;;6.82;;
67378;SDS011;54262;44.642;-0.974;2023-11-19T01:26:15;7.63;;;6.97;;
67378;SDS011;54262;44.642;-0.974;2023-11-19T01:28:41;8.80;;;6.70;;
67378;SDS011;54262;44.642;-0.974;2023-11-19T01:31:15;7.20;;;6.70;;
67378;SDS011;54262;44.642;-0.974;2023-11-19T01:33:41;7.13;;;6.60;;
67378;SDS011;54262;44.642;-0.974;2023-11-19T01:36:07;7.03;;;6.60;;
67378;SDS011;54262;44.642;-0.974;2023-11-19T01:38:33;7.03;;;6.53;;
67378;SDS011;54262;44.642;-0.974;2023-11-19T01:40:59;6.78;;;6.43;;
67378;SDS011;54262;44.642;-0.974;2023-11-19T01:43:36;6.28;;;5.82;;
67378;SDS011;54262;44.642;-0.974;2023-11-19T01:46:03;5.90;;;5.60;;
67378;SDS011;54262;44.642;-0.974;2023-11-19T01:48:33;6.50;;;6.10;;
67378;SDS011;54262;44.642;-0.974;2023-11-19T01:51:04;6.43;;;6.03;;
67378;SDS011;54262;44.642;-0.974;2023-11-19T01:53:31;6.07;;;5.78;;
67378;SDS011;54262;44.642;-0.974;2023-11-19T01:55:59;5.50;;;5.20;;
67378;SDS011;54262;44.642;-0.974;2023-11-19T01:58:26;6.22;;;5.82;;
67378;SDS011;54262;44.642;-0.974;2023-11-19T02:00:52;10.20;;;6.00;;
67378;SDS011;54262;44.642;-0.974;2023-11-19T02:03:18;6.47;;;6.07;;
67378;SDS011;54262;44.642;-0.974;2023-11-19T02:05:45;5.85;;;5.38;;
67378;SDS011;54262;44.642;-0.974;2023-11-19T02:08:13;6.18;;;5.72;;
67378;SDS011;54262;44.642;-0.974;2023-11-19T02:10:39;6.05;;;5.57;;
67378;SDS011;54262;44.642;-0.974;2023-11-19T02:13:05;6.18;;;5.75;;
67378;SDS011;54262;44.642;-0.974;2023-11-19T02:15:31;5.63;;;5.25;;
67378;SDS011;54262;44.642;-0.974;2023-11-19T02:18:16;5.60;;;5.20;;
67378;SDS011;54262;44.642;-0.974;2023-11-19T02:20:52;5.68;;;5.38;;
67378;SDS011;54262;44.642;-0.974;2023-11-19T02:23:26;5.18;;;4.88;;
67378;SDS011;54262;44.642;-0.974;2023-11-19T02:28:45;4.95;;;4.45;;
67378;SDS011;54262;44.642;-0.974;2023-11-19T02:31:11;5.88;;;5.38;;
67378;SDS011;54262;44.642;-0.974;2023-11-19T02:33:37;5.30;;;5.00;;
67378;SDS011;54262;44.642;-0.974;2023-11-19T02:36:04;5.43;;;5.03;;
67378;SDS011;54262;44.642;-0.974;2023-11-19T02:38:32;5.20;;;4.80;;
67378;SDS011;54262;44.642;-0.974;2023-11-19T02:40:58;6.05;;;5.43;;
67378;SDS011;54262;44.642;-0.974;2023-11-19T02:43:24;5.78;;;4.78;;
67378;SDS011;54262;44.642;-0.974;2023-11-19T02:45:49;5.20;;;4.88;;
67378;SDS011;54262;44.642;-0.974;2023-11-19T02:48:15;5.10;;;4.72;;
67378;SDS011;54262;44.642;-0.974;2023-11-19T02:50:41;5.68;;;5.18;;
67378;SDS011;54262;44.642;-0.974;2023-11-19T02:53:07;5.07;;;4.75;;
67378;SDS011;54262;44.642;-0.974;2023-11-19T02:55:33;5.53;;;5.22;;
67378;SDS011;54262;44.642;-0.974;2023-11-19T02:58:02;4.95;;;4.57;;
67378;SDS011;54262;44.642;-0.974;2023-11-19T03:00:34;4.80;;;4.50;;
67378;SDS011;54262;44.642;-0.974;2023-11-19T03:03:12;4.95;;;4.65;;
67378;SDS011;54262;44.642;-0.974;2023-11-19T03:05:48;8.07;;;5.28;;
67378;SDS011;54262;44.642;-0.974;2023-11-19T03:08:17;5.65;;;5.30;;
67378;SDS011;54262;44.642;-0.974;2023-11-19T03:10:45;6.03;;;4.63;;
67378;SDS011;54262;44.642;-0.974;2023-11-19T03:13:14;4.97;;;4.78;;
67378;SDS011;54262;44.642;-0.974;2023-11-19T03:15:42;5.13;;;4.80;;
67378;SDS011;54262;44.642;-0.974;2023-11-19T03:18:07;5.05;;;4.78;;
67378;SDS011;54262;44.642;-0.974;2023-11-19T03:20:33;5.10;;;4.75;;
67378;SDS011;54262;44.642;-0.974;2023-11-19T03:22:59;4.40;;;4.20;;
67378;SDS011;54262;44.642;-0.974;2023-11-19T03:25:28;4.43;;;4.22;;
67378;SDS011;54262;44.642;-0.974;2023-11-19T03:28:03;4.25;;;4.05;;
67378;SDS011;54262;44.642;-0.974;2023-11-19T03:30:29;4.68;;;4.47;;
67378;SDS011;54262;44.642;-0.974;2023-11-19T03:32:59;4.10;;;3.90;;
67378;SDS011;54262;44.642;-0.974;2023-11-19T03:35:26;4.03;;;3.83;;
67378;SDS011;54262;44.642;-0.974;2023-11-19T03:37:53;4.47;;;4.18;;
67378;SDS011;54262;44.642;-0.974;2023-11-19T03:40:18;4.50;;;4.10;;
67378;SDS011;54262;44.642;-0.974;2023-11-19T03:42:47;3.95;;;3.75;;
67378;SDS011;54262;44.642;-0.974;2023-11-19T03:45:13;4.03;;;3.83;;
67378;SDS011;54262;44.642;-0.974;2023-11-19T03:47:40;3.97;;;3.78;;
67378;SDS011;54262;44.642;-0.974;2023-11-19T03:50:06;4.03;;;3.83;;
67378;SDS011;54262;44.642;-0.974;2023-11-19T03:55:06;3.50;;;3.30;;
67378;SDS011;54262;44.642;-0.974;2023-11-19T03:57:33;3.75;;;3.55;;
67378;SDS011;54262;44.642;-0.974;2023-11-19T03:59:59;4.05;;;3.85;;
67378;SDS011;54262;44.642;-0.974;2023-11-19T04:02:30;4.07;;;3.78;;
67378;SDS011;54262;44.642;-0.974;2023-11-19T04:04:55;4.18;;;3.75;;
67378;SDS011;54262;44.642;-0.974;2023-11-19T04:07:21;3.05;;;2.85;;
67378;SDS011;54262;44.642;-0.974;2023-11-19T04:09:47;4.03;;;3.83;;
67378;SDS011;54262;44.642;-0.974;2023-11-19T04:12:13;4.13;;;3.83;;
67378;SDS011;54262;44.642;-0.974;2023-11-19T04:14:38;3.88;;;3.67;;
67378;SDS011;54262;44.642;-0.974;2023-11-19T04:17:05;3.30;;;3.10;;
67378;SDS011;54262;44.642;-0.974;2023-11-19T04:19:31;4.22;;;3.58;;
67378;SDS011;54262;44.642;-0.974;2023-11-19T04:21:57;3.58;;;3.38;;
67378;SDS011;54262;44.642;-0.974;2023-11-19T04:24:23;3.00;;;2.90;;
67378;SDS011;54262;44.642;-0.974;2023-11-19T04:26:51;4.32;;;3.55;;
67378;SDS011;54262;44.642;-0.974;2023-11-19T04:29:19;3.72;;;3.53;;
67378;SDS011;54262;44.642;-0.974;2023-11-19T04:31:45;2.92;;;2.80;;
67378;SDS011;54262;44.642;-0.974;2023-11-19T04:34:11;3.35;;;3.20;;
67378;SDS011;54262;44.642;-0.974;2023-11-19T04:36:37;3.45;;;3.25;;
67378;SDS011;54262;44.642;-0.974;2023-11-19T04:39:04;3.33;;;3.13;;
67378;SDS011;54262;44.642;-0.974;2023-11-19T04:41:34;3.30;;;3.10;;
67378;SDS011;54262;44.642;-0.974;2023-11-19T04:44:01;3.25;;;3.05;;
67378;SDS011;54262;44.642;-0.974;2023-11-19T04:46:27;4.15;;;3.95;;
67378;SDS011;54262;44.642;-0.974;2023-11-19T04:48:52;3.90;;;3.70;;
67378;SDS011;54262;44.642;-0.974;2023-11-19T04:51:18;3.42;;;3.22;;
67378;SDS011;54262;44.642;-0.974;2023-11-19T04:53:44;3.53;;;3.33;;
67378;SDS011;54262;44.642;-0.974;2023-11-19T04:56:10;4.28;;;3.97;;
67378;SDS011;54262;44.642;-0.974;2023-11-19T04:58:36;6.82;;;4.30;;
67378;SDS011;54262;44.642;-0.974;2023-11-19T05:01:03;4.35;;;4.05;;
67378;SDS011;54262;44.642;-0.974;2023-11-19T05:03:29;3.17;;;2.97;;
67378;SDS011;54262;44.642;-0.974;2023-11-19T05:05:58;3.22;;;3.03;;
67378;SDS011;54262;44.642;-0.974;2023-11-19T05:08:24;3.63;;;3.42;;
67378;SDS011;54262;44.642;-0.974;2023-11-19T05:10:50;4.00;;;3.72;;
67378;SDS011;54262;44.642;-0.974;2023-11-19T05:13:15;3.53;;;3.25;;
67378;SDS011;54262;44.642;-0.974;2023-11-19T05:15:42;2.90;;;2.80;;
67378;SDS011;54262;44.642;-0.974;2023-11-19T05:18:07;3.15;;;2.95;;
67378;SDS011;54262;44.642;-0.974;2023-11-19T05:20:33;2.72;;;2.53;;
67378;SDS011;54262;44.642;-0.974;2023-11-19T05:22:59;2.80;;;2.60;;
67378;SDS011;54262;44.642;-0.974;2023-11-19T05:25:27;3.03;;;2.75;;
67378;SDS011;54262;44.642;-0.974;2023-11-19T05:27:55;3.25;;;3.05;;
67378;SDS011;54262;44.642;-0.974;2023-11-19T05:30:23;4.20;;;2.83;;
67378;SDS011;54262;44.642;-0.974;2023-11-19T05:32:49;3.40;;;3.20;;
67378;SDS011;54262;44.642;-0.974;2023-11-19T05:35:14;2.88;;;2.67;;
67378;SDS011;54262;44.642;-0.974;2023-11-19T05:37:40;3.20;;;2.92;;
67378;SDS011;54262;44.642;-0.974;2023-11-19T05:40:06;3.05;;;2.83;;
67378;SDS011;54262;44.642;-0.974;2023-11-19T05:42:39;2.67;;;2.50;;
67378;SDS011;54262;44.642;-0.974;2023-11-19T05:45:05;2.65;;;2.55;;
67378;SDS011;54262;44.642;-0.974;2023-11-19T05:47:32;4.40;;;2.45;;
67378;SDS011;54262;44.642;-0.974;2023-11-19T05:49:58;2.60;;;2.50;;
67378;SDS011;54262;44.642;-0.974;2023-11-19T05:52:24;5.30;;;3.08;;
67378;SDS011;54262;44.642;-0.974;2023-11-19T05:54:50;2.88;;;2.67;;
67378;SDS011;54262;44.642;-0.974;2023-11-19T05:57:17;2.78;;;2.58;;
67378;SDS011;54262;44.642;-0.974;2023-11-19T05:59:49;2.92;;;2.83;;
67378;SDS011;54262;44.642;-0.974;2023-11-19T06:02:14;3.30;;;3.10;;
67378;SDS011;54262;44.642;-0.974;2023-11-19T06:04:40;3.17;;;2.97;;
67378;SDS011;54262;44.642;-0.974;2023-11-19T06:07:09;3.10;;;2.90;;
67378;SDS011;54262;44.642;-0.974;2023-11-19T06:09:34;3.15;;;2.85;;
67378;SDS011;54262;44.642;-0.974;2023-11-19T06:12:00;2.67;;;2.47;;
67378;SDS011;54262;44.642;-0.974;2023-11-19T06:14:27;2.90;;;2.70;;
67378;SDS011;54262;44.642;-0.974;2023-11-19T06:16:53;2.90;;;2.80;;
67378;SDS011;54262;44.642;-0.974;2023-11-19T06:19:18;2.90;;;2.70;;
67378;SDS011;54262;44.642;-0.974;2023-11-19T06:21:44;3.40;;;3.20;;
67378;SDS011;54262;44.642;-0.974;2023-11-19T06:24:09;2.75;;;2.65;;
67378;SDS011;54262;44.642;-0.974;2023-11-19T06:26:35;2.45;;;2.35;;
67378;SDS011;54262;44.642;-0.974;2023-11-19T06:29:03;2.88;;;2.60;;
67378;SDS011;54262;44.642;-0.974;2023-11-19T06:31:31;2.42;;;2.33;;
67378;SDS011;54262;44.642;-0.974;2023-11-19T06:33:56;2.00;;;1.90;;
67378;SDS011;54262;44.642;-0.974;2023-11-19T06:36:22;2.05;;;1.95;;
67378;SDS011;54262;44.642;-0.974;2023-11-19T06:38:48;3.08;;;2.20;;
67378;SDS011;54262;44.642;-0.974;2023-11-19T06:41:13;2.40;;;2.30;;
67378;SDS011;54262;44.642;-0.974;2023-11-19T06:43:39;2.45;;;2.28;;
67378;SDS011;54262;44.642;-0.974;2023-11-19T06:46:04;2.47;;;2.38;;
67378;SDS011;54262;44.642;-0.974;2023-11-19T06:48:34;2.38;;;2.28;;
67378;SDS011;54262;44.642;-0.974;2023-11-19T06:51:00;2.20;;;2.10;;
67378;SDS011;54262;44.642;-0.974;2023-11-19T06:53:25;2.15;;;2.05;;
67378;SDS011;54262;44.642;-0.974;2023-11-19T06:55:53;2.53;;;2.33;;
67378;SDS011;54262;44.642;-0.974;2023-11-19T06:58:19;2.38;;;2.00;;
67378;SDS011;54262;44.642;-0.974;2023-11-19T07:00:44;4.50;;;3.22;;
67378;SDS011;54262;44.642;-0.974;2023-11-19T07:03:12;2.75;;;2.63;;
67378;SDS011;54262;44.642;-0.974;2023-11-19T07:05:38;2.78;;;2.15;;
67378;SDS011;54262;44.642;-0.974;2023-11-19T07:08:08;2.22;;;2.10;;
67378;SDS011;54262;44.642;-0.974;2023-11-19T07:10:33;2.85;;;2.33;;
67378;SDS011;54262;44.642;-0.974;2023-11-19T07:12:59;2.47;;;2.38;;
67378;SDS011;54262;44.642;-0.974;2023-11-19T07:15:25;2.42;;;2.33;;
67378;SDS011;54262;44.642;-0.974;2023-11-19T07:17:51;1.95;;;1.85;;
67378;SDS011;54262;44.642;-0.974;2023-11-19T07:20:16;2.42;;;2.25;;
67378;SDS011;54262;44.642;-0.974;2023-11-19T07:22:43;2.17;;;2.03;;
67378;SDS011;54262;44.642;-0.974;2023-11-19T07:25:11;2.30;;;2.20;;
67378;SDS011;54262;44.642;-0.974;2023-11-19T07:27:39;1.90;;;1.80;;
67378;SDS011;54262;44.642;-0.974;2023-11-19T07:30:08;2.10;;;2.00;;
67378;SDS011;54262;44.642;-0.974;2023-11-19T07:32:35;2.35;;;2.25;;
67378;SDS011;54262;44.642;-0.974;2023-11-19T07:35:04;2.10;;;2.00;;
67378;SDS011;54262;44.642;-0.974;2023-11-19T07:37:30;2.63;;;2.53;;
67378;SDS011;54262;44.642;-0.974;2023-11-19T07:39:59;3.38;;;1.83;;
67378;SDS011;54262;44.642;-0.974;2023-11-19T07:42:24;1.88;;;1.77;;
67378;SDS011;54262;44.642;-0.974;2023-11-19T07:44:50;2.42;;;2.33;;
67378;SDS011;54262;44.642;-0.974;2023-11-19T07:47:16;1.90;;;1.83;;
67378;SDS011;54262;44.642;-0.974;2023-11-19T07:49:41;1.83;;;1.73;;
67378;SDS011;54262;44.642;-0.974;2023-11-19T07:52:09;2.33;;;1.85;;
67378;SDS011;54262;44.642;-0.974;2023-11-19T07:54:34;2.10;;;2.00;;
67378;SDS011;54262;44.642;-0.974;2023-11-19T07:57:00;2.20;;;2.10;;
67378;SDS011;54262;44.642;-0.974;2023-11-19T07:59:26;2.00;;;1.90;;
67378;SDS011;54262;44.642;-0.974;2023-11-19T08:01:55;1.90;;;1.80;;
67378;SDS011;54262;44.642;-0.974;2023-11-19T08:04:20;2.20;;;2.10;;
67378;SDS011;54262;44.642;-0.974;2023-11-19T08:06:46;5.45;;;2.05;;
67378;SDS011;54262;44.642;-0.974;2023-11-19T08:09:11;1.95;;;1.85;;
67378;SDS011;54262;44.642;-0.974;2023-11-19T08:11:39;2.70;;;2.45;;
67378;SDS011;54262;44.642;-0.974;2023-11-19T08:14:05;2.25;;;2.13;;
67378;SDS011;54262;44.642;-0.974;2023-11-19T08:16:31;2.28;;;2.17;;
67378;SDS011;54262;44.642;-0.974;2023-11-19T08:18:57;2.60;;;2.50;;
67378;SDS011;54262;44.642;-0.974;2023-11-19T08:21:23;2.25;;;2.10;;
67378;SDS011;54262;44.642;-0.974;2023-11-19T08:23:49;2.45;;;2.35;;
67378;SDS011;54262;44.642;-0.974;2023-11-19T08:26:15;2.22;;;2.13;;
67378;SDS011;54262;44.642;-0.974;2023-11-19T08:28:41;3.55;;;2.50;;
67378;SDS011;54262;44.642;-0.974;2023-11-19T08:31:09;2.38;;;2.17;;
67378;SDS011;54262;44.642;-0.974;2023-11-19T08:33:36;2.20;;;1.98;;
67378;SDS011;54262;44.642;-0.974;2023-11-19T08:36:03;3.30;;;3.00;;
67378;SDS011;54262;44.642;-0.974;2023-11-19T08:38:32;2.03;;;1.92;;
67378;SDS011;54262;44.642;-0.974;2023-11-19T08:40:58;3.67;;;2.45;;
67378;SDS011;54262;44.642;-0.974;2023-11-19T08:43:25;2.78;;;2.58;;
67378;SDS011;54262;44.642;-0.974;2023-11-19T08:45:51;1.88;;;1.77;;
67378;SDS011;54262;44.642;-0.974;2023-11-19T08:48:17;3.03;;;2.50;;
67378;SDS011;54262;44.642;-0.974;2023-11-19T08:50:43;3.63;;;2.55;;
67378;SDS011;54262;44.642;-0.974;2023-11-19T08:53:08;4.03;;;2.20;;
67378;SDS011;54262;44.642;-0.974;2023-11-19T08:55:34;3.35;;;3.08;;
67378;SDS011;54262;44.642;-0.974;2023-11-19T08:58:00;2.22;;;2.13;;
67378;SDS011;54262;44.642;-0.974;2023-11-19T09:00:26;6.45;;;3.22;;
67378;SDS011;54262;44.642;-0.974;2023-11-19T09:02:51;4.45;;;3.53;;
67378;SDS011;54262;44.642;-0.974;2023-11-19T09:05:17;2.95;;;2.75;;
67378;SDS011;54262;44.642;-0.974;2023-11-19T09:07:43;2.00;;;1.90;;
67378;SDS011;54262;44.642;-0.974;2023-11-19T09:10:08;5.65;;;2.78;;
67378;SDS011;54262;44.642;-0.974;2023-11-19T09:12:35;2.47;;;2.35;;
67378;SDS011;54262;44.642;-0.974;2023-11-19T09:15:00;2.28;;;2.17;;
67378;SDS011;54262;44.642;-0.974;2023-11-19T09:17:26;5.13;;;2.47;;
67378;SDS011;54262;44.642;-0.974;2023-11-19T09:19:52;2.38;;;2.25;;
67378;SDS011;54262;44.642;-0.974;2023-11-19T09:22:17;6.43;;;2.42;;
67378;SDS011;54262;44.642;-0.974;2023-11-19T09:24:43;4.63;;;2.45;;
67378;SDS011;54262;44.642;-0.974;2023-11-19T09:27:09;3.88;;;2.42;;
67378;SDS011;54262;44.642;-0.974;2023-11-19T09:29:35;5.43;;;3.10;;
67378;SDS011;54262;44.642;-0.974;2023-11-19T09:32:04;8.02;;;4.10;;
67378;SDS011;54262;44.642;-0.974;2023-11-19T09:34:32;2.88;;;2.67;;
67378;SDS011;54262;44.642;-0.974;2023-11-19T09:36:58;10.73;;;3.25;;
67378;SDS011;54262;44.642;-0.974;2023-11-19T09:39:23;3.35;;;2.67;;
67378;SDS011;54262;44.642;-0.974;2023-11-19T09:41:50;3.25;;;2.78;;
67378;SDS011;54262;44.642;-0.974;2023-11-19T09:44:17;5.75;;;2.40;;
67378;SDS011;54262;44.642;-0.974;2023-11-19T09:46:44;2.38;;;1.83;;
67378;SDS011;54262;44.642;-0.974;2023-11-19T09:49:11;6.32;;;2.53;;
67378;SDS011;54262;44.642;-0.974;2023-11-19T09:51:38;3.50;;;2.50;;
67378;SDS011;54262;44.642;-0.974;2023-11-19T09:54:03;4.32;;;1.90;;
67378;SDS011;54262;44.642;-0.974;2023-11-19T09:56:29;2.00;;;1.80;;
67378;SDS011;54262;44.642;-0.974;2023-11-19T09:58:57;2.72;;;2.40;;
67378;SDS011;54262;44.642;-0.974;2023-11-19T10:01:24;2.00;;;1.85;;
67378;SDS011;54262;44.642;-0.974;2023-11-19T10:03:50;13.23;;;3.60;;
67378;SDS011;54262;44.642;-0.974;2023-11-19T10:06:20;14.30;;;5.25;;
67378;SDS011;54262;44.642;-0.974;2023-11-19T10:08:46;7.47;;;5.65;;
67378;SDS011;54262;44.642;-0.974;2023-11-19T10:11:12;16.92;;;5.88;;
67378;SDS011;54262;44.642;-0.974;2023-11-19T10:13:38;13.95;;;5.72;;
67378;SDS011;54262;44.642;-0.974;2023-11-19T10:16:07;7.95;;;4.63;;
67378;SDS011;54262;44.642;-0.974;2023-11-19T10:18:33;5.13;;;3.28;;
67378;SDS011;54262;44.642;-0.974;2023-11-19T10:21:03;1.60;;;1.50;;
67378;SDS011;54262;44.642;-0.974;2023-11-19T10:23:30;1.40;;;1.30;;
67378;SDS011;54262;44.642;-0.974;2023-11-19T10:26:02;1.60;;;1.50;;
67378;SDS011;54262;44.642;-0.974;2023-11-19T10:28:38;1.95;;;1.80;;
67378;SDS011;54262;44.642;-0.974;2023-11-19T10:31:07;1.45;;;1.40;;
67378;SDS011;54262;44.642;-0.974;2023-11-19T10:33:35;1.70;;;1.60;;
67378;SDS011;54262;44.642;-0.974;2023-11-19T10:36:03;1.67;;;1.58;;
67378;SDS011;54262;44.642;-0.974;2023-11-19T10:38:29;1.35;;;1.10;;
67378;SDS011;54262;44.642;-0.974;2023-11-19T10:40:55;2.13;;;1.92;;
67378;SDS011;54262;44.642;-0.974;2023-11-19T10:43:21;1.60;;;1.50;;
67378;SDS011;54262;44.642;-0.974;2023-11-19T10:45:48;1.38;;;1.27;;
67378;SDS011;54262;44.642;-0.974;2023-11-19T10:48:14;2.45;;;1.42;;
67378;SDS011;54262;44.642;-0.974;2023-11-19T10:50:40;2.17;;;1.40;;
67378;SDS011;54262;44.642;-0.974;2023-11-19T10:53:07;1.75;;;1.60;;
67378;SDS011;54262;44.642;-0.974;2023-11-19T10:55:34;1.40;;;1.30;;
67378;SDS011;54262;44.642;-0.974;2023-11-19T10:58:07;1.73;;;1.60;;
67378;SDS011;54262;44.642;-0.974;2023-11-19T11:03:24;2.85;;;1.38;;
67378;SDS011;54262;44.642;-0.974;2023-11-19T11:05:51;1.67;;;1.58;;
67378;SDS011;54262;44.642;-0.974;2023-11-19T11:08:19;1.10;;;1.10;;
67378;SDS011;54262;44.642;-0.974;2023-11-19T11:10:55;1.60;;;1.50;;
67378;SDS011;54262;44.642;-0.974;2023-11-19T11:13:24;1.40;;;1.27;;
67378;SDS011;54262;44.642;-0.974;2023-11-19T11:15:52;0.98;;;0.98;;
67378;SDS011;54262;44.642;-0.974;2023-11-19T11:18:21;1.48;;;1.38;;
67378;SDS011;54262;44.642;-0.974;2023-11-19T11:20:48;1.95;;;1.75;;
67378;SDS011;54262;44.642;-0.974;2023-11-19T11:26:11;1.13;;;1.10;;
67378;SDS011;54262;44.642;-0.974;2023-11-19T11:39:40;1.98;;;1.25;;
67378;SDS011;54262;44.642;-0.974;2023-11-19T11:45:05;3.13;;;1.58;;
67378;SDS011;54262;44.642;-0.974;2023-11-19T11:50:10;1.58;;;1.48;;
67378;SDS011;54262;44.642;-0.974;2023-11-19T11:53:26;12.68;;;2.63;;
67378;SDS011;54262;44.642;-0.974;2023-11-19T11:55:39;9.65;;;2.53;;
67378;SDS011;54262;44.642;-0.974;2023-11-19T11:58:20;3.38;;;2.22;;
67378;SDS011;54262;44.642;-0.974;2023-11-19T12:00:57;1.23;;;1.13;;
67378;SDS011;54262;44.642;-0.974;2023-11-19T12:03:26;2.03;;;1.70;;
67378;SDS011;54262;44.642;-0.974;2023-11-19T12:05:53;2.10;;;1.20;;
67378;SDS011;54262;44.642;-0.974;2023-11-19T12:08:19;1.52;;;1.30;;
67378;SDS011;54262;44.642;-0.974;2023-11-19T12:13:15;1.98;;;1.40;;
67378;SDS011;54262;44.642;-0.974;2023-11-19T12:18:26;1.58;;;1.48;;
67378;SDS011;54262;44.642;-0.974;2023-11-19T12:20:52;1.27;;;1.15;;
67378;SDS011;54262;44.642;-0.974;2023-11-19T12:23:18;1.80;;;1.70;;
67378;SDS011;54262;44.642;-0.974;2023-11-19T12:25:44;3.08;;;2.72;;
67378;SDS011;54262;44.642;-0.974;2023-11-19T12:28:13;1.63;;;1.20;;
67378;SDS011;54262;44.642;-0.974;2023-11-19T12:30:39;1.13;;;1.08;;
67378;SDS011;54262;44.642;-0.974;2023-11-19T12:33:08;2.67;;;1.70;;
67378;SDS011;54262;44.642;-0.974;2023-11-19T12:35:42;1.70;;;1.60;;
67378;SDS011;54262;44.642;-0.974;2023-11-19T12:38:21;2.08;;;1.88;;
67378;SDS011;54262;44.642;-0.974;2023-11-19T12:41:09;1.50;;;1.33;;
67378;SDS011;54262;44.642;-0.974;2023-11-19T12:43:37;1.40;;;1.30;;
67378;SDS011;54262;44.642;-0.974;2023-11-19T12:46:23;3.88;;;1.70;;
67378;SDS011;54262;44.642;-0.974;2023-11-19T12:48:49;2.85;;;1.58;;
67378;SDS011;54262;44.642;-0.974;2023-11-19T12:51:15;1.67;;;1.30;;
67378;SDS011;54262;44.642;-0.974;2023-11-19T12:53:51;2.17;;;1.52;;
67378;SDS011;54262;44.642;-0.974;2023-11-19T12:56:20;1.63;;;1.52;;
67378;SDS011;54262;44.642;-0.974;2023-11-19T12:58:46;1.45;;;1.35;;
67378;SDS011;54262;44.642;-0.974;2023-11-19T13:01:15;1.50;;;1.40;;
67378;SDS011;54262;44.642;-0.974;2023-11-19T13:03:45;1.60;;;1.20;;
67378;SDS011;54262;44.642;-0.974;2023-11-19T13:06:12;1.60;;;1.50;;
67378;SDS011;54262;44.642;-0.974;2023-11-19T13:08:42;1.40;;;1.30;;
67378;SDS011;54262;44.642;-0.974;2023-11-19T13:11:13;1.60;;;1.40;;
67378;SDS011;54262;44.642;-0.974;2023-11-19T13:14:01;2.35;;;1.70;;
67378;SDS011;54262;44.642;-0.974;2023-11-19T13:16:33;1.50;;;1.40;;
67378;SDS011;54262;44.642;-0.974;2023-11-19T13:19:01;1.48;;;1.15;;
67378;SDS011;54262;44.642;-0.974;2023-11-19T13:21:26;1.13;;;1.02;;
67378;SDS011;54262;44.642;-0.974;2023-11-19T13:23:52;4.90;;;1.77;;
67378;SDS011;54262;44.642;-0.974;2023-11-19T13:26:18;1.65;;;1.55;;
67378;SDS011;54262;44.642;-0.974;2023-11-19T13:28:43;1.10;;;1.10;;
67378;SDS011;54262;44.642;-0.974;2023-11-19T13:31:09;1.65;;;1.27;;
67378;SDS011;54262;44.642;-0.974;2023-11-19T13:33:35;1.30;;;1.20;;
67378;SDS011;54262;44.642;-0.974;2023-11-19T13:36:04;1.45;;;1.35;;
67378;SDS011;54262;44.642;-0.974;2023-11-19T13:38:35;1.50;;;1.40;;
67378;SDS011;54262;44.642;-0.974;2023-11-19T13:41:02;2.95;;;2.13;;
67378;SDS011;54262;44.642;-0.974;2023-11-19T13:43:29;1.40;;;1.30;;
67378;SDS011;54262;44.642;-0.974;2023-11-19T13:45:55;1.23;;;1.13;;
67378;SDS011;54262;44.642;-0.974;2023-11-19T13:48:21;4.07;;;1.38;;
67378;SDS011;54262;44.642;-0.974;2023-11-19T13:50:47;1.80;;;1.52;;
67378;SDS011;54262;44.642;-0.974;2023-11-19T13:53:13;2.08;;;1.55;;
67378;SDS011;54262;44.642;-0.974;2023-11-19T13:55:38;2.08;;;1.52;;
67378;SDS011;54262;44.642;-0.974;2023-11-19T13:58:04;1.40;;;1.30;;
67378;SDS011;54262;44.642;-0.974;2023-11-19T14:00:29;1.60;;;1.50;;
67378;SDS011;54262;44.642;-0.974;2023-11-19T14:02:55;2.15;;;1.63;;
67378;SDS011;54262;44.642;-0.974;2023-11-19T14:05:21;1.67;;;1.30;;
67378;SDS011;54262;44.642;-0.974;2023-11-19T14:07:48;1.50;;;1.40;;
67378;SDS011;54262;44.642;-0.974;2023-11-19T14:10:14;1.40;;;1.30;;
67378;SDS011;54262;44.642;-0.974;2023-11-19T14:12:40;3.63;;;1.45;;
67378;SDS011;54262;44.642;-0.974;2023-11-19T14:15:06;1.33;;;1.23;;
67378;SDS011;54262;44.642;-0.974;2023-11-19T14:17:42;1.50;;;1.33;;
67378;SDS011;54262;44.642;-0.974;2023-11-19T14:20:08;0.98;;;0.82;;
67378;SDS011;54262;44.642;-0.974;2023-11-19T14:22:42;1.43;;;1.30;;
67378;SDS011;54262;44.642;-0.974;2023-11-19T14:25:08;1.90;;;1.30;;
67378;SDS011;54262;44.642;-0.974;2023-11-19T14:27:38;1.42;;;1.25;;
67378;SDS011;54262;44.642;-0.974;2023-11-19T14:30:07;2.90;;;1.13;;
67378;SDS011;54262;44.642;-0.974;2023-11-19T14:32:37;2.17;;;1.73;;
67378;SDS011;54262;44.642;-0.974;2023-11-19T14:35:05;1.40;;;1.02;;
67378;SDS011;54262;44.642;-0.974;2023-11-19T14:37:34;1.80;;;1.55;;
67378;SDS011;54262;44.642;-0.974;2023-11-19T14:40:02;1.15;;;1.00;;
67378;SDS011;54262;44.642;-0.974;2023-11-19T14:42:32;1.25;;;1.13;;
67378;SDS011;54262;44.642;-0.974;2023-11-19T14:44:57;1.40;;;1.30;;
67378;SDS011;54262;44.642;-0.974;2023-11-19T14:47:26;1.48;;;1.38;;
67378;SDS011;54262;44.642;-0.974;2023-11-19T14:49:52;3.83;;;1.42;;
67378;SDS011;54262;44.642;-0.974;2023-11-19T14:52:17;1.08;;;0.95;;
67378;SDS011;54262;44.642;-0.974;2023-11-19T14:54:43;3.20;;;1.33;;
67378;SDS011;54262;44.642;-0.974;2023-11-19T14:57:12;1.55;;;1.25;;
67378;SDS011;54262;44.642;-0.974;2023-11-19T14:59:38;4.32;;;1.30;;
67378;SDS011;54262;44.642;-0.974;2023-11-19T15:02:04;1.70;;;1.33;;
67378;SDS011;54262;44.642;-0.974;2023-11-19T15:04:30;1.10;;;1.00;;
67378;SDS011;54262;44.642;-0.974;2023-11-19T15:06:56;1.75;;;1.25;;